Time;durP1;ratioP1;P1;durP2;ratioP2;P2;SDS_P1;SDS_P2;PMS_P1;PMS_P2;Temp;Humidity;BMP_temperature;BMP_pressure;BME280_temperature;BME280_humidity;BME280_pressure;Samples;Min_cycle;Max_cycle;Signal;HPM_P1;HPM_P2
2023/10/20 00:01:54;;;;;;;20.77;12.35;;;;;;;14.18;100.00;98292.38;5008354;28;20055;-68
2023/10/20 00:04:19;;;;;;;20.08;11.63;;;;;;;14.20;100.00;98289.50;5041689;28;20036;-68
2023/10/20 00:06:45;;;;;;;17.20;11.85;;;;;;;14.15;100.00;98284.25;5008999;28;20037;-68
2023/10/20 00:09:14;;;;;;;22.63;12.13;;;;;;;14.15;100.00;98277.19;5025621;28;20478;-68
2023/10/20 00:11:43;;;;;;;20.40;12.45;;;;;;;14.26;100.00;98274.72;5043191;28;20057;-68
2023/10/20 00:14:09;;;;;;;18.50;12.20;;;;;;;14.17;100.00;98274.38;5043379;28;20063;-68
2023/10/20 00:16:34;;;;;;;19.65;11.75;;;;;;;14.13;100.00;98268.06;5025917;28;20025;-68
2023/10/20 00:19:03;;;;;;;18.45;12.07;;;;;;;14.17;100.00;98264.72;5009555;28;21877;-68
2023/10/20 00:21:29;;;;;;;19.02;11.70;;;;;;;14.11;100.00;98260.47;5011277;28;20032;-68
2023/10/20 00:23:55;;;;;;;21.67;11.82;;;;;;;14.14;100.00;98259.97;5023916;28;20059;-68
2023/10/20 00:26:21;;;;;;;19.05;11.93;;;;;;;14.18;100.00;98270.72;5023183;28;20049;-67
2023/10/20 00:28:48;;;;;;;16.35;11.20;;;;;;;14.18;100.00;98263.69;5022209;28;20578;-68
2023/10/20 00:31:16;;;;;;;23.00;12.15;;;;;;;14.19;100.00;98261.88;5040337;28;20420;-68
2023/10/20 00:33:42;;;;;;;21.33;11.73;;;;;;;14.19;100.00;98256.66;5026281;28;20044;-68
2023/10/20 00:36:09;;;;;;;21.33;11.77;;;;;;;14.15;100.00;98255.56;5024788;28;20392;-67
2023/10/20 00:38:35;;;;;;;19.88;12.55;;;;;;;14.15;100.00;98247.75;5025489;28;20147;-68
2023/10/20 00:41:01;;;;;;;18.45;11.60;;;;;;;14.12;100.00;98246.41;5026323;28;21116;-68
2023/10/20 00:43:37;;;;;;;17.17;11.50;;;;;;;14.10;100.00;98251.06;5021864;28;20029;-68
2023/10/20 00:46:04;;;;;;;16.20;11.02;;;;;;;14.19;100.00;98238.44;5032236;28;20503;-67
2023/10/20 00:48:31;;;;;;;16.45;11.20;;;;;;;14.15;100.00;98234.72;5022629;28;20041;-68
2023/10/20 00:50:59;;;;;;;17.30;11.00;;;;;;;14.19;100.00;98225.41;5023677;28;20090;-68
2023/10/20 00:53:27;;;;;;;22.08;11.40;;;;;;;14.11;100.00;98217.97;5027172;28;20450;-68
2023/10/20 00:55:54;;;;;;;22.38;10.52;;;;;;;14.18;100.00;98214.19;5041866;28;20591;-68
2023/10/20 00:58:20;;;;;;;21.33;10.40;;;;;;;14.20;100.00;98206.09;5021471;28;20045;-67
2023/10/20 01:00:46;;;;;;;16.00;11.30;;;;;;;14.14;100.00;98201.88;5006936;28;20051;-68
2023/10/20 01:03:12;;;;;;;18.15;11.13;;;;;;;14.14;100.00;98194.06;5025284;28;20037;-67
2023/10/20 01:05:38;;;;;;;19.67;11.90;;;;;;;14.14;100.00;98199.25;5026976;28;20391;-68
2023/10/20 01:08:03;;;;;;;22.48;11.93;;;;;;;14.08;100.00;98188.00;5041904;28;20045;-68
2023/10/20 01:10:29;;;;;;;16.25;10.05;;;;;;;14.02;100.00;98186.34;5024803;28;20075;-67
2023/10/20 01:12:54;;;;;;;18.70;12.07;;;;;;;14.13;100.00;98179.47;5023575;28;20041;-68
2023/10/20 01:15:20;;;;;;;23.25;11.13;;;;;;;14.08;100.00;98164.53;5026882;28;20064;-68
2023/10/20 01:17:45;;;;;;;17.67;10.27;;;;;;;14.06;100.00;98158.00;5025566;28;20079;-67
2023/10/20 01:20:11;;;;;;;17.38;11.48;;;;;;;13.96;100.00;98148.25;5020853;28;20033;-68
2023/10/20 01:22:37;;;;;;;17.40;11.30;;;;;;;13.94;100.00;98147.72;5021911;28;20045;-67
2023/10/20 01:25:04;;;;;;;23.23;12.20;;;;;;;13.93;100.00;98152.13;5041210;28;20140;-68
2023/10/20 01:27:29;;;;;;;24.45;12.02;;;;;;;14.00;100.00;98150.13;5023003;28;20554;-68
2023/10/20 01:29:54;;;;;;;20.60;12.32;;;;;;;14.10;100.00;98153.88;5024540;28;20039;-68
2023/10/20 01:32:20;;;;;;;19.23;12.45;;;;;;;14.07;100.00;98149.16;5007714;28;20033;-68
2023/10/20 01:34:46;;;;;;;16.60;11.65;;;;;;;14.10;100.00;98143.47;5043332;28;20024;-68
2023/10/20 01:37:11;;;;;;;18.73;12.10;;;;;;;14.10;100.00;98146.06;5025058;28;20037;-68
2023/10/20 01:39:38;;;;;;;18.52;11.68;;;;;;;14.20;100.00;98146.16;5014721;28;20048;-68
2023/10/20 01:42:03;;;;;;;18.40;11.85;;;;;;;14.12;100.00;98144.00;5022518;28;20086;-67
2023/10/20 01:44:29;;;;;;;21.85;11.55;;;;;;;14.12;100.00;98136.97;5027379;28;20024;-67
2023/10/20 01:46:54;;;;;;;18.55;11.48;;;;;;;14.17;100.00;98139.63;5023580;28;20064;-68
2023/10/20 01:49:20;;;;;;;20.35;12.00;;;;;;;14.16;100.00;98138.03;5024101;28;20064;-67
2023/10/20 01:51:46;;;;;;;16.73;11.30;;;;;;;14.20;100.00;98130.53;5021933;28;20057;-68
2023/10/20 01:54:12;;;;;;;16.55;10.95;;;;;;;14.08;100.00;98130.66;5023148;28;20446;-67
2023/10/20 01:56:37;;;;;;;17.15;11.30;;;;;;;14.05;100.00;98119.94;5026486;28;20028;-67
2023/10/20 01:59:05;;;;;;;17.45;10.93;;;;;;;14.00;100.00;98115.47;5023901;28;20077;-68
2023/10/20 02:01:31;;;;;;;20.23;12.00;;;;;;;14.15;100.00;98110.44;5024428;28;20492;-68
2023/10/20 02:03:57;;;;;;;15.55;11.02;;;;;;;14.10;100.00;98115.56;5019106;28;20088;-68
2023/10/20 02:06:22;;;;;;;17.50;11.98;;;;;;;14.18;100.00;98103.94;5024126;28;20033;-68
2023/10/20 02:08:48;;;;;;;19.67;11.45;;;;;;;14.20;100.00;98099.25;5037482;28;20423;-68
2023/10/20 02:11:13;;;;;;;15.93;11.18;;;;;;;14.18;100.00;98099.53;5025262;28;20055;-68
2023/10/20 02:13:40;;;;;;;16.40;11.15;;;;;;;14.25;100.00;98093.34;5022965;28;20037;-68
2023/10/20 02:16:10;;;;;;;15.25;11.05;;;;;;;14.26;100.00;98082.66;5027594;28;20055;-67
2023/10/20 02:18:36;;;;;;;15.48;10.32;;;;;;;14.17;100.00;98078.91;5032889;28;20050;-68
2023/10/20 02:21:05;;;;;;;15.35;10.20;;;;;;;14.11;100.00;98075.47;5009141;28;20043;-67
2023/10/20 02:23:35;;;;;;;16.13;10.68;;;;;;;14.09;100.00;98064.50;5004421;28;20036;-67
2023/10/20 02:26:06;;;;;;;18.08;11.35;;;;;;;14.17;100.00;98053.63;5023028;28;20036;-68
2023/10/20 02:28:33;;;;;;;19.42;11.60;;;;;;;14.20;100.00;98060.97;5039417;28;20136;-68
2023/10/20 02:31:00;;;;;;;17.10;11.00;;;;;;;14.22;100.00;98047.69;5025989;28;20037;-68
2023/10/20 02:33:26;;;;;;;16.05;9.77;;;;;;;14.15;100.00;98053.09;5024238;28;20099;-68
2023/10/20 02:35:54;;;;;;;18.33;11.18;;;;;;;14.23;100.00;98049.25;5038148;28;20488;-68
2023/10/20 02:38:20;;;;;;;16.13;10.43;;;;;;;14.26;100.00;98038.34;5008961;28;20052;-67
2023/10/20 02:40:52;;;;;;;13.35;10.25;;;;;;;14.21;100.00;98035.69;5007849;28;20037;-67
2023/10/20 02:43:18;;;;;;;17.40;10.83;;;;;;;14.30;100.00;98028.22;5022302;28;20035;-68
2023/10/20 02:45:52;;;;;;;12.25;9.65;;;;;;;14.18;100.00;98016.13;5003676;28;21168;-68
2023/10/20 02:48:21;;;;;;;20.13;10.25;;;;;;;14.15;100.00;98011.41;5021552;28;20714;-68
2023/10/20 02:50:47;;;;;;;13.75;9.77;;;;;;;14.18;100.00;98003.09;5028115;28;20050;-67
2023/10/20 02:53:16;;;;;;;15.63;10.60;;;;;;;14.14;100.00;98001.22;5037018;28;20045;-67
2023/10/20 02:55:42;;;;;;;17.10;10.02;;;;;;;14.10;100.00;97992.34;5038149;28;20096;-68
2023/10/20 02:58:10;;;;;;;17.15;10.50;;;;;;;14.01;100.00;97999.81;5022306;28;20418;-68
2023/10/20 03:00:43;;;;;;;17.48;10.63;;;;;;;14.09;100.00;97994.16;5023036;28;20037;-68
2023/10/20 03:03:11;;;;;;;17.33;9.90;;;;;;;14.11;100.00;97992.09;5039555;28;20041;-68
2023/10/20 03:05:37;;;;;;;15.80;9.88;;;;;;;14.02;100.00;97983.94;5034836;28;20029;-68
2023/10/20 03:08:04;;;;;;;12.98;9.50;;;;;;;14.02;100.00;97960.47;5039722;28;20420;-68
2023/10/20 03:10:30;;;;;;;17.33;10.57;;;;;;;14.19;100.00;97946.56;5021667;28;20076;-67
2023/10/20 03:12:55;;;;;;;14.70;9.25;;;;;;;14.09;100.00;97936.84;5007965;28;20499;-67
2023/10/20 03:15:22;;;;;;;13.63;8.63;;;;;;;14.16;100.00;97936.63;5020164;28;20033;-67
2023/10/20 03:17:47;;;;;;;13.77;9.07;;;;;;;14.21;100.00;97934.06;5021949;28;20506;-67
2023/10/20 03:20:17;;;;;;;11.20;8.70;;;;;;;14.30;100.00;97934.41;5024204;28;20048;-68
2023/10/20 03:22:46;;;;;;;12.90;8.77;;;;;;;14.18;100.00;97939.75;5025392;28;20514;-67
2023/10/20 03:25:13;;;;;;;12.48;8.65;;;;;;;14.28;100.00;97939.84;5020809;28;20044;-68
2023/10/20 03:27:38;;;;;;;12.02;8.30;;;;;;;14.26;100.00;97933.31;5022204;28;20537;-67
2023/10/20 03:30:05;;;;;;;16.30;8.68;;;;;;;14.36;100.00;97941.22;5036360;28;20032;-68
2023/10/20 03:32:31;;;;;;;11.57;7.97;;;;;;;14.29;100.00;97931.00;5038992;28;20041;-67
2023/10/20 03:34:57;;;;;;;13.07;8.70;;;;;;;14.37;100.00;97929.75;5025619;28;20033;-68
2023/10/20 03:37:22;;;;;;;10.13;7.70;;;;;;;14.29;100.00;97912.75;5024487;28;20048;-68
2023/10/20 03:39:49;;;;;;;9.35;6.85;;;;;;;14.38;100.00;97908.63;5013686;28;20032;-68
2023/10/20 03:42:15;;;;;;;9.48;6.22;;;;;;;14.43;100.00;97910.50;5022111;28;20075;-67
2023/10/20 03:44:47;;;;;;;8.43;5.55;;;;;;;14.44;100.00;97919.13;5028069;28;20490;-67
2023/10/20 03:47:17;;;;;;;8.68;5.65;;;;;;;14.41;100.00;97931.63;5007400;28;20045;-68
2023/10/20 03:49:43;;;;;;;7.82;5.68;;;;;;;14.33;100.00;97895.56;5040721;28;20037;-67
2023/10/20 03:52:11;;;;;;;8.95;5.00;;;;;;;14.24;100.00;97878.03;5022493;28;20037;-67
2023/10/20 03:54:40;;;;;;;7.88;5.88;;;;;;;14.18;100.00;97878.03;5025855;28;21015;-67
2023/10/20 03:57:06;;;;;;;10.00;4.97;;;;;;;14.15;100.00;97875.13;5036273;28;20096;-68
2023/10/20 03:59:34;;;;;;;10.38;6.38;;;;;;;14.14;100.00;97882.16;5013295;28;20032;-67
2023/10/20 04:02:01;;;;;;;7.05;5.50;;;;;;;14.17;100.00;97876.44;5041555;28;20044;-67
2023/10/20 04:04:26;;;;;;;8.20;4.78;;;;;;;14.36;100.00;97873.44;5040604;28;20064;-68
2023/10/20 04:06:52;;;;;;;6.45;4.53;;;;;;;14.54;100.00;97865.22;5022099;28;20087;-67
2023/10/20 04:09:20;;;;;;;5.45;4.28;;;;;;;14.61;100.00;97872.81;5024062;28;20037;-67
2023/10/20 04:11:46;;;;;;;5.55;3.78;;;;;;;14.69;100.00;97866.34;5026545;28;20060;-68
2023/10/20 04:14:12;;;;;;;7.00;4.18;;;;;;;14.73;100.00;97859.56;5038757;28;20066;-67
2023/10/20 04:16:41;;;;;;;6.80;4.00;;;;;;;14.63;100.00;97849.88;5041509;28;20029;-67
2023/10/20 04:19:14;;;;;;;6.18;3.85;;;;;;;14.72;100.00;97861.41;5039437;28;20049;-67
2023/10/20 04:21:39;;;;;;;;;;;;;;;14.72;100.00;97850.97;5047797;28;20052;-67
2023/10/20 04:24:09;;;;;;;5.97;3.83;;;;;;;14.70;100.00;97841.84;5042471;28;19917;-67
2023/10/20 04:26:36;;;;;;;7.13;3.80;;;;;;;14.77;100.00;97839.78;5045007;28;20036;-67
2023/10/20 04:29:23;;;;;;;4.97;3.60;;;;;;;14.71;100.00;97832.97;5041797;28;20041;-67
2023/10/20 04:54:07;;;;;;;4.93;3.35;;;;;;;14.63;100.00;97744.81;5040159;28;20073;-67
2023/10/20 04:56:37;;;;;;;4.82;3.40;;;;;;;14.53;100.00;97740.31;5036974;28;20491;-66
2023/10/20 04:59:09;;;;;;;4.20;3.28;;;;;;;14.53;100.00;97735.09;5022565;28;20040;-67
2023/10/20 05:01:41;;;;;;;7.28;3.55;;;;;;;14.50;100.00;97731.16;5023617;28;20045;-67
2023/10/20 05:04:28;;;;;;;5.40;3.40;;;;;;;14.61;100.00;97726.81;5040917;28;20091;-67
2023/10/20 05:07:05;;;;;;;9.93;4.10;;;;;;;14.60;100.00;97720.03;5036818;28;20037;-67
2023/10/20 05:09:33;;;;;;;4.32;3.40;;;;;;;14.52;100.00;97717.88;5039841;28;20030;-67
2023/10/20 05:11:59;;;;;;;6.75;4.03;;;;;;;14.49;100.00;97711.38;5039785;28;20045;-66
2023/10/20 05:14:25;;;;;;;5.45;3.75;;;;;;;14.47;100.00;97703.03;5039600;28;20044;-67
2023/10/20 05:16:50;;;;;;;6.78;3.42;;;;;;;14.40;100.00;97707.69;5023000;28;20031;-66
2023/10/20 05:19:16;;;;;;;4.93;3.63;;;;;;;14.38;100.00;97701.94;5041962;28;20124;-67
2023/10/20 05:21:41;;;;;;;8.75;3.15;;;;;;;14.35;100.00;97699.84;5039263;28;20029;-67
2023/10/20 05:24:08;;;;;;;7.53;3.45;;;;;;;14.37;100.00;97705.59;5020466;28;20052;-66
2023/10/20 05:26:34;;;;;;;5.00;3.83;;;;;;;14.38;100.00;97713.16;5041816;28;20029;-67
2023/10/20 05:29:00;;;;;;;4.57;3.40;;;;;;;14.35;100.00;97692.03;5006717;28;20040;-67
2023/10/20 05:31:26;;;;;;;5.65;3.35;;;;;;;14.30;100.00;97692.03;5039637;28;20392;-67
2023/10/20 05:33:53;;;;;;;4.13;3.33;;;;;;;14.26;100.00;97685.72;5026595;28;20033;-67
2023/10/20 05:36:19;;;;;;;5.75;3.60;;;;;;;14.28;100.00;97683.66;5037385;28;20025;-67
2023/10/20 05:38:44;;;;;;;6.25;3.08;;;;;;;14.23;100.00;97681.06;5035891;28;20037;-67
2023/10/20 05:41:11;;;;;;;4.65;3.13;;;;;;;14.20;100.00;97672.72;5040913;28;20490;-67
2023/10/20 05:43:37;;;;;;;4.30;3.50;;;;;;;14.26;100.00;97683.94;5023580;28;20037;-67
2023/10/20 05:46:02;;;;;;;4.50;2.97;;;;;;;14.24;100.00;97698.25;5025939;28;20034;-67
2023/10/20 05:48:28;;;;;;;4.55;2.83;;;;;;;14.20;100.00;97700.56;5036673;28;20033;-67
2023/10/20 05:50:57;;;;;;;6.40;2.83;;;;;;;14.18;100.00;97698.25;5024363;28;20036;-67
2023/10/20 05:53:26;;;;;;;5.38;2.63;;;;;;;14.18;100.00;97694.81;5038522;28;20064;-67
2023/10/20 05:55:52;;;;;;;3.53;2.83;;;;;;;14.16;100.00;97695.06;5041910;28;20475;-67
2023/10/20 05:58:18;;;;;;;4.60;2.67;;;;;;;14.15;100.00;97688.31;5023956;28;20056;-67
2023/10/20 06:00:43;;;;;;;4.25;2.58;;;;;;;14.16;100.00;97678.66;5022241;28;20082;-67
2023/10/20 06:03:09;;;;;;;5.95;3.00;;;;;;;14.15;100.00;97671.91;5039588;28;20124;-68
2023/10/20 06:05:35;;;;;;;4.85;2.97;;;;;;;14.13;100.00;97669.56;5025479;28;20768;-68
2023/10/20 06:08:00;;;;;;;6.43;3.58;;;;;;;14.14;100.00;97663.28;5025045;28;20286;-67
2023/10/20 06:10:26;;;;;;;4.72;3.20;;;;;;;14.12;100.00;97661.97;5039727;28;20041;-67
2023/10/20 06:12:53;;;;;;;6.95;3.10;;;;;;;14.13;100.00;97653.91;5036209;28;20044;-67
2023/10/20 06:15:20;;;;;;;7.15;4.68;;;;;;;14.14;100.00;97659.91;5010161;28;22234;-67
2023/10/20 06:17:46;;;;;;;10.52;5.13;;;;;;;14.10;100.00;97656.25;5022248;28;20037;-67
2023/10/20 06:20:13;;;;;;;7.65;5.20;;;;;;;14.03;100.00;97659.06;5040544;28;20037;-67
2023/10/20 06:22:40;;;;;;;12.00;6.22;;;;;;;13.93;100.00;97659.03;5019360;28;20063;-67
2023/10/20 06:25:12;;;;;;;12.18;6.40;;;;;;;13.88;100.00;97661.63;5036710;28;20035;-67
2023/10/20 06:27:39;;;;;;;12.45;7.32;;;;;;;13.82;100.00;97661.59;5024606;28;20048;-67
2023/10/20 06:30:14;;;;;;;10.70;6.78;;;;;;;13.80;100.00;97673.28;5016929;28;20032;-67
2023/10/20 06:32:45;;;;;;;13.10;7.68;;;;;;;13.81;100.00;97674.88;5019488;28;20036;-67
2023/10/20 06:35:12;;;;;;;13.23;8.10;;;;;;;13.76;100.00;97680.06;5037150;28;20399;-67
2023/10/20 06:37:46;;;;;;;14.43;7.80;;;;;;;13.75;100.00;97673.25;5033389;28;20041;-67
2023/10/20 06:40:15;;;;;;;12.00;7.45;;;;;;;13.71;100.00;97665.19;5037907;28;20032;-67
2023/10/20 06:42:44;;;;;;;19.85;11.75;;;;;;;13.67;100.00;97661.50;5039993;28;20101;-67
2023/10/20 06:45:11;;;;;;;21.08;11.82;;;;;;;13.68;100.00;97663.09;5020969;28;20389;-68
2023/10/20 06:47:39;;;;;;;14.20;8.50;;;;;;;13.67;100.00;97666.72;5004849;28;20073;-68
2023/10/20 06:50:05;;;;;;;12.32;7.85;;;;;;;13.66;100.00;97670.38;5037119;28;20032;-67
2023/10/20 06:52:30;;;;;;;11.13;7.45;;;;;;;13.68;100.00;97675.31;5014888;28;20591;-68
2023/10/20 06:54:56;;;;;;;12.25;7.40;;;;;;;13.64;100.00;97680.25;5030750;28;20037;-68
2023/10/20 06:57:24;;;;;;;11.75;7.32;;;;;;;13.63;100.00;97663.81;5032423;28;20080;-68
2023/10/20 06:59:50;;;;;;;13.73;8.32;;;;;;;13.61;100.00;97659.91;5032628;28;20037;-67
2023/10/20 07:02:15;;;;;;;17.15;8.95;;;;;;;13.62;100.00;97666.69;5033611;28;20047;-68
2023/10/20 07:04:41;;;;;;;12.10;7.53;;;;;;;13.59;100.00;97670.56;5033223;28;20044;-67
2023/10/20 07:07:12;;;;;;;16.23;8.85;;;;;;;13.56;100.00;97671.09;5015031;28;20041;-68
2023/10/20 07:09:38;;;;;;;21.52;9.25;;;;;;;13.65;100.00;97666.19;5017813;28;20426;-67
2023/10/20 07:12:06;;;;;;;14.65;8.85;;;;;;;13.61;100.00;97665.13;5006867;28;20103;-68
2023/10/20 07:14:31;;;;;;;15.30;8.23;;;;;;;13.56;100.00;97655.47;5041943;28;20127;-68
2023/10/20 07:16:58;;;;;;;13.07;8.50;;;;;;;13.54;100.00;97654.13;5019549;28;20076;-68
2023/10/20 07:19:23;;;;;;;13.18;8.50;;;;;;;13.55;100.00;97658.31;5026852;28;20056;-68
2023/10/20 07:21:50;;;;;;;24.20;10.27;;;;;;;13.55;100.00;97663.53;5027270;28;20037;-68
2023/10/20 07:24:15;;;;;;;12.40;7.93;;;;;;;13.54;100.00;97661.94;5022340;28;20577;-68
2023/10/20 07:26:42;;;;;;;18.55;9.77;;;;;;;13.60;100.00;97661.75;5041074;28;20040;-68
2023/10/20 07:29:07;;;;;;;17.30;10.40;;;;;;;13.66;100.00;97667.00;5043548;28;20487;-68
2023/10/20 07:31:34;;;;;;;16.77;9.48;;;;;;;13.60;100.00;97653.16;5043383;28;20120;-68
2023/10/20 07:34:01;;;;;;;13.63;8.93;;;;;;;13.56;100.00;97652.88;5044746;28;20084;-68
2023/10/20 07:36:27;;;;;;;13.25;9.20;;;;;;;13.60;100.00;97646.13;5026449;28;20037;-68
2023/10/20 07:38:52;;;;;;;14.15;9.35;;;;;;;13.57;100.00;97651.03;5006079;28;20099;-69
2023/10/20 07:41:18;;;;;;;14.30;8.90;;;;;;;13.52;100.00;97651.00;5040505;28;20056;-68
2023/10/20 07:43:43;;;;;;;12.85;8.77;;;;;;;13.53;100.00;97642.94;5041161;28;20045;-68
2023/10/20 07:46:17;;;;;;;13.30;8.07;;;;;;;13.52;100.00;97648.41;5042949;28;20033;-69
2023/10/20 07:48:42;;;;;;;13.88;9.18;;;;;;;13.51;100.00;97657.25;5039923;28;20181;-68
2023/10/20 07:51:08;;;;;;;14.32;8.98;;;;;;;13.55;100.00;97658.31;5040757;28;20492;-68
2023/10/20 07:53:33;;;;;;;14.93;9.25;;;;;;;13.53;100.00;97660.41;5036808;28;20177;-69
2023/10/20 07:55:58;;;;;;;15.63;9.13;;;;;;;13.53;100.00;97660.41;5028054;28;20506;-69
2023/10/20 07:58:24;;;;;;;16.17;9.10;;;;;;;13.55;100.00;97653.91;5038891;28;20033;-68
2023/10/20 08:00:50;;;;;;;13.43;8.55;;;;;;;13.52;100.00;97648.41;5039192;28;20087;-69
2023/10/20 08:03:16;;;;;;;12.73;8.73;;;;;;;13.54;100.00;97648.94;5023137;28;20527;-69
2023/10/20 08:05:41;;;;;;;13.60;8.80;;;;;;;13.56;100.00;97645.06;5012052;28;20072;-68
2023/10/20 08:08:07;;;;;;;16.55;8.27;;;;;;;13.58;100.00;97642.19;5026612;28;20044;-68
2023/10/20 08:10:32;;;;;;;13.32;8.38;;;;;;;13.62;100.00;97643.28;5026367;28;20052;-68
2023/10/20 08:12:59;;;;;;;9.90;7.05;;;;;;;13.59;100.00;97643.75;5045008;28;20040;-69
2023/10/20 08:15:28;;;;;;;11.80;7.47;;;;;;;13.55;100.00;97643.47;5040135;28;20026;-68
2023/10/20 08:17:54;;;;;;;11.80;7.80;;;;;;;13.62;100.00;97644.06;5041616;28;20515;-69
2023/10/20 08:20:20;;;;;;;10.38;6.40;;;;;;;13.66;100.00;97652.13;5009303;28;20126;-68
2023/10/20 08:22:45;;;;;;;9.60;6.78;;;;;;;13.63;100.00;97661.22;5038593;28;20033;-68
2023/10/20 08:25:11;;;;;;;12.13;7.20;;;;;;;13.63;100.00;97655.25;5005199;28;20047;-69
2023/10/20 08:27:36;;;;;;;10.25;7.30;;;;;;;13.63;100.00;97658.63;5040858;28;20055;-69
2023/10/20 08:30:02;;;;;;;11.15;7.03;;;;;;;13.66;100.00;97652.13;5010765;28;20057;-69
2023/10/20 08:32:28;;;;;;;9.15;6.13;;;;;;;13.65;100.00;97653.16;5011173;28;20095;-68
2023/10/20 08:34:54;;;;;;;9.05;5.88;;;;;;;13.64;100.00;97654.22;5037196;28;20025;-68
2023/10/20 08:37:19;;;;;;;13.10;7.25;;;;;;;13.68;100.00;97662.31;5035109;28;20040;-68
2023/10/20 08:39:45;;;;;;;10.05;6.18;;;;;;;13.68;100.00;97664.91;5044570;28;20111;-68
2023/10/20 08:42:18;;;;;;;11.05;6.53;;;;;;;13.68;100.00;97663.09;5034999;28;20060;-69
2023/10/20 08:44:46;;;;;;;12.65;6.35;;;;;;;13.66;100.00;97665.16;5040236;28;20104;-68
2023/10/20 08:47:13;;;;;;;11.63;6.60;;;;;;;13.82;100.00;97666.81;5037975;28;20114;-68
2023/10/20 08:49:42;;;;;;;12.80;8.10;;;;;;;13.79;100.00;97656.13;5043146;28;20115;-68
2023/10/20 08:52:11;;;;;;;14.82;8.75;;;;;;;13.75;100.00;97658.44;5041762;28;20164;-68
2023/10/20 08:54:37;;;;;;;11.73;6.50;;;;;;;13.76;100.00;97662.59;5032639;28;20025;-68
2023/10/20 08:57:05;;;;;;;9.55;6.25;;;;;;;13.88;100.00;97645.97;5025638;28;20056;-69
2023/10/20 08:59:32;;;;;;;9.40;6.38;;;;;;;13.92;100.00;97647.84;5020689;28;20044;-69
2023/10/20 09:01:58;;;;;;;9.40;5.97;;;;;;;13.88;100.00;97659.00;5006456;28;20460;-69
2023/10/20 09:04:26;;;;;;;7.63;5.15;;;;;;;13.80;100.00;97655.84;5024740;28;20116;-69
2023/10/20 09:06:52;;;;;;;10.27;6.68;;;;;;;13.87;100.00;97658.22;5041158;28;20025;-68
2023/10/20 09:09:19;;;;;;;9.43;6.45;;;;;;;13.83;100.00;97651.97;5043551;28;20033;-68
2023/10/20 09:11:46;;;;;;;11.57;7.00;;;;;;;13.83;100.00;97649.38;5039268;28;20039;-68
2023/10/20 09:14:12;;;;;;;8.98;5.65;;;;;;;13.82;100.00;97653.00;5036319;28;20036;-69
2023/10/20 09:16:38;;;;;;;10.35;6.53;;;;;;;13.91;100.00;97661.13;5041925;28;20051;-69
2023/10/20 09:19:04;;;;;;;8.90;5.93;;;;;;;13.83;100.00;97660.56;5024795;28;20041;-69
2023/10/20 09:21:30;;;;;;;10.68;6.78;;;;;;;13.89;100.00;97652.78;5040032;28;20036;-69
2023/10/20 09:24:02;;;;;;;11.55;6.80;;;;;;;13.88;100.00;97652.00;5024312;28;20394;-69
2023/10/20 09:26:30;;;;;;;14.02;6.75;;;;;;;13.98;100.00;97657.25;5021371;28;20037;-69
2023/10/20 09:28:56;;;;;;;12.15;6.38;;;;;;;13.91;100.00;97642.88;5036702;28;20885;-69
2023/10/20 09:31:23;;;;;;;10.77;6.18;;;;;;;13.89;100.00;97640.53;5037539;28;20112;-69
2023/10/20 09:33:49;;;;;;;12.88;7.43;;;;;;;13.91;100.00;97642.88;5039431;28;20816;-69
2023/10/20 09:36:15;;;;;;;10.07;6.93;;;;;;;13.94;100.00;97639.78;5045021;28;20029;-69
2023/10/20 09:38:49;;;;;;;10.13;6.68;;;;;;;13.90;100.00;97638.69;5025784;28;20032;-68
2023/10/20 09:41:17;;;;;;;9.80;7.03;;;;;;;13.92;100.00;97644.44;5011277;28;20120;-69
2023/10/20 09:43:52;;;;;;;10.02;6.97;;;;;;;13.91;100.00;97643.66;5021957;28;20040;-68
2023/10/20 09:46:24;;;;;;;9.52;6.25;;;;;;;13.92;100.00;97650.44;5024570;28;22084;-69
2023/10/20 09:48:51;;;;;;;14.52;7.10;;;;;;;14.03;100.00;97656.47;5024103;28;20111;-69
2023/10/20 09:51:19;;;;;;;21.35;11.35;;;;;;;13.96;100.00;97643.69;5027461;28;20443;-68
2023/10/20 09:53:45;;;;;;;15.65;8.40;;;;;;;13.91;100.00;97646.25;5025050;28;20483;-69
2023/10/20 09:56:12;;;;;;;8.52;6.10;;;;;;;13.97;100.00;97653.06;5024253;28;20033;-69
2023/10/20 09:58:38;;;;;;;11.90;6.82;;;;;;;13.95;100.00;97655.13;5022848;28;20491;-69
2023/10/20 10:01:06;;;;;;;11.90;7.95;;;;;;;14.07;100.00;97654.94;5042238;28;20047;-69
2023/10/20 10:03:40;;;;;;;10.88;6.95;;;;;;;14.06;100.00;97650.75;5024994;28;20163;-69
2023/10/20 10:06:12;;;;;;;16.02;8.27;;;;;;;14.05;100.00;97649.19;5036607;28;20025;-68
2023/10/20 10:08:43;;;;;;;13.77;9.00;;;;;;;14.04;100.00;97645.03;5023607;28;20045;-69
2023/10/20 10:11:26;;;;;;;11.23;7.43;;;;;;;14.09;100.00;97652.88;5022908;28;20033;-69
2023/10/20 10:13:58;;;;;;;14.32;7.18;;;;;;;14.11;100.00;97648.19;5019988;28;20061;-69
2023/10/20 10:16:23;;;;;;;15.07;7.90;;;;;;;14.12;100.00;97641.91;5020695;28;20461;-68
2023/10/20 10:18:50;;;;;;;12.68;8.05;;;;;;;14.16;100.00;97634.38;5040111;28;20094;-69
2023/10/20 10:21:48;;;;;;;12.75;7.82;;;;;;;14.11;100.00;97632.53;5023629;28;20503;-69
2023/10/20 10:24:17;;;;;;;13.27;7.88;;;;;;;14.20;100.00;97627.59;5026511;28;20083;-69
2023/10/20 10:26:51;;;;;;;13.68;8.30;;;;;;;14.14;100.00;97623.44;5026076;28;20039;-69
2023/10/20 10:29:49;;;;;;;12.50;7.80;;;;;;;14.13;100.00;97621.88;5008917;28;20079;-69
2023/10/20 10:32:17;;;;;;;12.93;8.85;;;;;;;14.09;100.00;97621.59;5035350;28;20040;-69
2023/10/20 10:34:48;;;;;;;15.35;8.45;;;;;;;14.25;100.00;97622.41;5023413;28;20495;-69
2023/10/20 10:37:28;;;;;;;11.25;8.25;;;;;;;14.14;100.00;97610.41;5023365;28;20037;-69
2023/10/20 10:40:07;;;;;;;14.02;8.20;;;;;;;14.16;100.00;97603.88;5023856;28;20036;-69
2023/10/20 10:42:52;;;;;;;12.23;8.13;;;;;;;14.13;100.00;97606.25;5022234;28;20044;-68
2023/10/20 10:45:31;;;;;;;11.48;8.10;;;;;;;14.18;100.00;97594.00;5024315;28;20068;-69
2023/10/20 10:48:07;;;;;;;14.27;8.50;;;;;;;14.16;100.00;97600.50;5034499;28;20121;-69
2023/10/20 10:50:36;;;;;;;11.57;7.57;;;;;;;14.13;100.00;97588.00;5021407;28;20047;-70
2023/10/20 10:53:02;;;;;;;14.25;8.30;;;;;;;14.19;100.00;97579.16;5038372;28;20397;-69
2023/10/20 10:55:28;;;;;;;13.32;8.65;;;;;;;14.16;100.00;97564.03;5042244;28;20036;-69
2023/10/20 10:57:53;;;;;;;15.50;8.13;;;;;;;14.19;100.00;97563.53;5025800;28;20091;-69
2023/10/20 11:00:21;;;;;;;13.65;7.80;;;;;;;14.26;100.00;97553.63;5024006;28;20127;-69
2023/10/20 11:02:48;;;;;;;12.23;8.38;;;;;;;14.18;100.00;97544.50;5042217;28;20048;-69
2023/10/20 11:05:15;;;;;;;13.48;9.02;;;;;;;14.16;100.00;97536.13;5038682;28;20111;-70
2023/10/20 11:07:41;;;;;;;10.73;7.43;;;;;;;14.14;100.00;97547.88;5018597;28;20037;-69
2023/10/20 11:10:08;;;;;;;11.98;8.15;;;;;;;14.09;100.00;97540.03;5040122;28;20104;-70
2023/10/20 11:12:34;;;;;;;11.23;7.93;;;;;;;14.07;100.00;97545.53;5036728;28;20458;-69
2023/10/20 11:14:59;;;;;;;13.32;7.95;;;;;;;14.12;100.00;97537.69;5025419;28;20041;-69
2023/10/20 11:17:25;;;;;;;11.05;7.45;;;;;;;14.11;100.00;97527.53;5037355;28;20547;-69
2023/10/20 11:19:51;;;;;;;12.10;7.63;;;;;;;14.10;100.00;97524.16;5022061;28;20484;-69
2023/10/20 11:22:16;;;;;;;13.82;7.93;;;;;;;14.10;100.00;97513.72;5023123;28;20041;-69
2023/10/20 11:24:42;;;;;;;14.13;8.07;;;;;;;14.16;100.00;97497.06;5010037;28;20029;-69
2023/10/20 11:27:08;;;;;;;11.13;7.95;;;;;;;14.14;100.00;97504.34;5036611;28;20040;-69
2023/10/20 11:29:35;;;;;;;10.65;7.47;;;;;;;14.09;100.00;97500.97;5023417;28;20032;-69
2023/10/20 11:32:06;;;;;;;13.63;8.38;;;;;;;14.06;100.00;97497.06;5038742;28;20399;-69
2023/10/20 11:34:32;;;;;;;12.93;7.97;;;;;;;14.08;100.00;97502.00;5025226;28;20103;-70
2023/10/20 11:36:59;;;;;;;17.30;8.32;;;;;;;14.03;100.00;97489.75;5022291;28;20506;-69
2023/10/20 11:39:24;;;;;;;15.13;8.05;;;;;;;14.09;100.00;97490.53;5038603;28;20033;-69
2023/10/20 11:41:51;;;;;;;14.82;7.43;;;;;;;13.99;100.00;97475.69;5021390;28;20033;-68